sensor_id;sensor_type;location;lat;lon;timestamp;P1;durP1;ratioP1;P2;durP2;ratioP2
17967;SDS011;9109;48.050;11.696;2022-12-31T04:46:43;0.40;;;0.40;;
17967;SDS011;9109;48.050;11.696;2022-12-31T04:49:45;2.57;;;0.40;;
17967;SDS011;9109;48.050;11.696;2022-12-31T04:52:47;0.40;;;0.40;;
17967;SDS011;9109;48.050;11.696;2022-12-31T04:55:49;1.50;;;0.40;;
17967;SDS011;9109;48.050;11.696;2022-12-31T04:58:53;0.40;;;0.40;;
17967;SDS011;9109;48.050;11.696;2022-12-31T05:01:56;0.40;;;0.40;;
17967;SDS011;9109;48.050;11.696;2022-12-31T05:04:58;0.60;;;0.40;;
17967;SDS011;9109;48.050;11.696;2022-12-31T05:08:00;1.00;;;0.40;;
17967;SDS011;9109;48.050;11.696;2022-12-31T05:11:02;0.40;;;0.40;;
17967;SDS011;9109;48.050;11.696;2022-12-31T05:14:04;2.83;;;0.40;;
17967;SDS011;9109;48.050;11.696;2022-12-31T05:17:08;0.50;;;0.50;;
17967;SDS011;9109;48.050;11.696;2022-12-31T05:20:10;0.43;;;0.43;;
17967;SDS011;9109;48.050;11.696;2022-12-31T05:23:12;0.80;;;0.40;;
17967;SDS011;9109;48.050;11.696;2022-12-31T05:26:14;0.57;;;0.57;;
17967;SDS011;9109;48.050;11.696;2022-12-31T05:29:16;2.63;;;0.63;;
17967;SDS011;9109;48.050;11.696;2022-12-31T05:32:20;0.30;;;0.30;;
17967;SDS011;9109;48.050;11.696;2022-12-31T05:35:22;1.43;;;0.50;;
17967;SDS011;9109;48.050;11.696;2022-12-31T05:38:24;0.52;;;0.40;;
17967;SDS011;9109;48.050;11.696;2022-12-31T05:41:26;0.50;;;0.50;;
17967;SDS011;9109;48.050;11.696;2022-12-31T05:44:28;1.95;;;0.40;;
17967;SDS011;9109;48.050;11.696;2022-12-31T05:47:37;1.43;;;0.57;;
17967;SDS011;9109;48.050;11.696;2022-12-31T05:50:39;0.93;;;0.50;;
17967;SDS011;9109;48.050;11.696;2022-12-31T05:53:41;0.40;;;0.40;;
17967;SDS011;9109;48.050;11.696;2022-12-31T05:56:43;0.57;;;0.50;;
17967;SDS011;9109;48.050;11.696;2022-12-31T05:59:45;0.53;;;0.40;;
17967;SDS011;9109;48.050;11.696;2022-12-31T06:02:50;0.70;;;0.60;;
17967;SDS011;9109;48.050;11.696;2022-12-31T06:05:55;0.80;;;0.50;;
17967;SDS011;9109;48.050;11.696;2022-12-31T06:08:56;0.80;;;0.40;;
17967;SDS011;9109;48.050;11.696;2022-12-31T06:11:58;1.60;;;0.50;;
17967;SDS011;9109;48.050;11.696;2022-12-31T06:15:00;0.63;;;0.50;;
17967;SDS011;9109;48.050;11.696;2022-12-31T06:18:04;1.37;;;0.77;;
17967;SDS011;9109;48.050;11.696;2022-12-31T06:21:06;0.50;;;0.50;;
17967;SDS011;9109;48.050;11.696;2022-12-31T06:24:08;0.40;;;0.40;;
17967;SDS011;9109;48.050;11.696;2022-12-31T06:27:12;0.53;;;0.40;;
17967;SDS011;9109;48.050;11.696;2022-12-31T06:30:17;1.17;;;0.40;;
17967;SDS011;9109;48.050;11.696;2022-12-31T06:33:23;0.30;;;0.30;;
17967;SDS011;9109;48.050;11.696;2022-12-31T06:36:28;0.63;;;0.50;;
17967;SDS011;9109;48.050;11.696;2022-12-31T06:39:30;0.47;;;0.47;;
17967;SDS011;9109;48.050;11.696;2022-12-31T06:42:32;0.40;;;0.40;;
17967;SDS011;9109;48.050;11.696;2022-12-31T06:45:34;0.70;;;0.50;;
17967;SDS011;9109;48.050;11.696;2022-12-31T06:48:41;3.03;;;0.60;;
17967;SDS011;9109;48.050;11.696;2022-12-31T06:51:50;0.67;;;0.40;;
17967;SDS011;9109;48.050;11.696;2022-12-31T06:55:02;0.80;;;0.60;;
17967;SDS011;9109;48.050;11.696;2022-12-31T06:58:27;3.77;;;0.40;;
17967;SDS011;9109;48.050;11.696;2022-12-31T07:01:42;6.17;;;0.90;;
17967;SDS011;9109;48.050;11.696;2022-12-31T07:08:53;3.80;;;0.70;;
17967;SDS011;9109;48.050;11.696;2022-12-31T07:12:15;0.93;;;0.50;;
17967;SDS011;9109;48.050;11.696;2022-12-31T07:15:46;0.70;;;0.50;;
17967;SDS011;9109;48.050;11.696;2022-12-31T07:19:14;1.10;;;0.63;;
17967;SDS011;9109;48.050;11.696;2022-12-31T07:22:28;1.53;;;0.50;;
17967;SDS011;9109;48.050;11.696;2022-12-31T07:25:46;2.30;;;0.70;;
17967;SDS011;9109;48.050;11.696;2022-12-31T07:28:59;0.70;;;0.63;;
17967;SDS011;9109;48.050;11.696;2022-12-31T07:32:17;1.00;;;0.70;;
17967;SDS011;9109;48.050;11.696;2022-12-31T07:35:31;1.00;;;0.60;;
17967;SDS011;9109;48.050;11.696;2022-12-31T07:38:46;2.23;;;0.90;;
17967;SDS011;9109;48.050;11.696;2022-12-31T07:42:10;0.73;;;0.70;;
17967;SDS011;9109;48.050;11.696;2022-12-31T07:45:28;1.17;;;0.60;;
17967;SDS011;9109;48.050;11.696;2022-12-31T07:48:57;0.83;;;0.70;;
17967;SDS011;9109;48.050;11.696;2022-12-31T07:52:01;0.97;;;0.57;;
17967;SDS011;9109;48.050;11.696;2022-12-31T07:55:10;2.23;;;0.40;;
17967;SDS011;9109;48.050;11.696;2022-12-31T07:58:27;2.73;;;0.67;;
17967;SDS011;9109;48.050;11.696;2022-12-31T08:01:47;4.00;;;0.60;;
17967;SDS011;9109;48.050;11.696;2022-12-31T08:08:45;0.50;;;0.50;;
17967;SDS011;9109;48.050;11.696;2022-12-31T08:12:09;1.73;;;0.60;;
17967;SDS011;9109;48.050;11.696;2022-12-31T08:15:34;2.47;;;0.50;;
17967;SDS011;9109;48.050;11.696;2022-12-31T08:18:40;0.43;;;0.43;;
17967;SDS011;9109;48.050;11.696;2022-12-31T08:22:05;0.55;;;0.52;;
17967;SDS011;9109;48.050;11.696;2022-12-31T08:25:20;1.47;;;0.70;;
17967;SDS011;9109;48.050;11.696;2022-12-31T08:32:16;1.87;;;0.70;;
17967;SDS011;9109;48.050;11.696;2022-12-31T08:35:31;0.80;;;0.60;;
17967;SDS011;9109;48.050;11.696;2022-12-31T08:39:02;0.40;;;0.40;;
17967;SDS011;9109;48.050;11.696;2022-12-31T08:42:22;0.93;;;0.68;;
17967;SDS011;9109;48.050;11.696;2022-12-31T08:45:41;2.67;;;0.77;;
17967;SDS011;9109;48.050;11.696;2022-12-31T08:49:00;0.67;;;0.60;;
17967;SDS011;9109;48.050;11.696;2022-12-31T08:52:11;0.50;;;0.50;;
17967;SDS011;9109;48.050;11.696;2022-12-31T08:55:24;1.45;;;0.70;;
17967;SDS011;9109;48.050;11.696;2022-12-31T08:58:41;1.90;;;0.70;;
17967;SDS011;9109;48.050;11.696;2022-12-31T09:02:09;1.38;;;0.60;;
17967;SDS011;9109;48.050;11.696;2022-12-31T09:05:46;0.67;;;0.60;;
17967;SDS011;9109;48.050;11.696;2022-12-31T09:09:03;0.85;;;0.60;;
17967;SDS011;9109;48.050;11.696;2022-12-31T09:12:20;0.82;;;0.68;;
17967;SDS011;9109;48.050;11.696;2022-12-31T09:15:40;2.70;;;0.70;;
17967;SDS011;9109;48.050;11.696;2022-12-31T09:18:51;0.68;;;0.60;;
17967;SDS011;9109;48.050;11.696;2022-12-31T09:21:59;0.77;;;0.70;;
17967;SDS011;9109;48.050;11.696;2022-12-31T09:25:12;0.45;;;0.45;;
17967;SDS011;9109;48.050;11.696;2022-12-31T09:28:33;5.20;;;0.70;;
17967;SDS011;9109;48.050;11.696;2022-12-31T09:31:49;0.57;;;0.50;;
17967;SDS011;9109;48.050;11.696;2022-12-31T09:35:26;0.50;;;0.50;;
17967;SDS011;9109;48.050;11.696;2022-12-31T09:49:55;0.68;;;0.50;;
17967;SDS011;9109;48.050;11.696;2022-12-31T09:53:41;1.33;;;0.70;;
17967;SDS011;9109;48.050;11.696;2022-12-31T09:57:21;3.15;;;0.50;;
17967;SDS011;9109;48.050;11.696;2022-12-31T10:00:38;0.40;;;0.40;;
17967;SDS011;9109;48.050;11.696;2022-12-31T10:04:07;0.63;;;0.50;;
17967;SDS011;9109;48.050;11.696;2022-12-31T10:07:48;0.60;;;0.50;;
17967;SDS011;9109;48.050;11.696;2022-12-31T10:14:44;1.30;;;0.60;;
17967;SDS011;9109;48.050;11.696;2022-12-31T10:18:04;0.52;;;0.50;;
17967;SDS011;9109;48.050;11.696;2022-12-31T10:21:17;0.73;;;0.63;;
17967;SDS011;9109;48.050;11.696;2022-12-31T10:24:35;1.30;;;0.60;;
17967;SDS011;9109;48.050;11.696;2022-12-31T10:27:58;0.40;;;0.40;;
17967;SDS011;9109;48.050;11.696;2022-12-31T10:31:12;0.70;;;0.57;;
17967;SDS011;9109;48.050;11.696;2022-12-31T10:34:42;0.45;;;0.45;;
17967;SDS011;9109;48.050;11.696;2022-12-31T10:38:03;0.40;;;0.40;;
17967;SDS011;9109;48.050;11.696;2022-12-31T10:41:24;0.50;;;0.50;;
17967;SDS011;9109;48.050;11.696;2022-12-31T10:45:19;0.50;;;0.50;;
17967;SDS011;9109;48.050;11.696;2022-12-31T10:49:13;4.10;;;0.57;;
17967;SDS011;9109;48.050;11.696;2022-12-31T10:52:56;0.65;;;0.50;;
17967;SDS011;9109;48.050;11.696;2022-12-31T10:56:33;1.40;;;0.55;;
17967;SDS011;9109;48.050;11.696;2022-12-31T11:00:20;4.22;;;0.60;;
17967;SDS011;9109;48.050;11.696;2022-12-31T11:03:46;1.17;;;0.70;;
17967;SDS011;9109;48.050;11.696;2022-12-31T11:07:40;0.45;;;0.40;;
17967;SDS011;9109;48.050;11.696;2022-12-31T11:11:07;0.60;;;0.50;;
17967;SDS011;9109;48.050;11.696;2022-12-31T11:18:35;1.42;;;0.60;;
17967;SDS011;9109;48.050;11.696;2022-12-31T11:21:49;0.40;;;0.40;;
17967;SDS011;9109;48.050;11.696;2022-12-31T11:25:19;0.40;;;0.40;;
17967;SDS011;9109;48.050;11.696;2022-12-31T11:28:56;4.28;;;0.57;;
17967;SDS011;9109;48.050;11.696;2022-12-31T11:32:31;1.10;;;0.47;;
17967;SDS011;9109;48.050;11.696;2022-12-31T11:36:14;6.10;;;0.50;;
17967;SDS011;9109;48.050;11.696;2022-12-31T11:39:38;0.70;;;0.60;;
17967;SDS011;9109;48.050;11.696;2022-12-31T11:42:55;0.50;;;0.50;;
17967;SDS011;9109;48.050;11.696;2022-12-31T11:46:25;6.03;;;0.95;;
17967;SDS011;9109;48.050;11.696;2022-12-31T11:49:50;1.45;;;0.50;;
17967;SDS011;9109;48.050;11.696;2022-12-31T11:53:09;0.73;;;0.50;;
17967;SDS011;9109;48.050;11.696;2022-12-31T11:56:50;0.52;;;0.47;;
17967;SDS011;9109;48.050;11.696;2022-12-31T12:00:17;0.55;;;0.52;;
17967;SDS011;9109;48.050;11.696;2022-12-31T12:03:27;0.57;;;0.50;;
17967;SDS011;9109;48.050;11.696;2022-12-31T12:06:40;0.63;;;0.50;;
17967;SDS011;9109;48.050;11.696;2022-12-31T12:09:52;3.28;;;0.52;;
17967;SDS011;9109;48.050;11.696;2022-12-31T12:13:08;0.50;;;0.43;;
17967;SDS011;9109;48.050;11.696;2022-12-31T12:16:31;1.67;;;0.47;;
17967;SDS011;9109;48.050;11.696;2022-12-31T12:19:45;1.42;;;0.52;;
17967;SDS011;9109;48.050;11.696;2022-12-31T12:23:31;3.72;;;0.40;;
17967;SDS011;9109;48.050;11.696;2022-12-31T12:27:00;0.43;;;0.43;;
17967;SDS011;9109;48.050;11.696;2022-12-31T12:30:28;1.98;;;0.60;;
17967;SDS011;9109;48.050;11.696;2022-12-31T12:33:47;0.50;;;0.40;;
17967;SDS011;9109;48.050;11.696;2022-12-31T12:37:03;0.50;;;0.47;;
17967;SDS011;9109;48.050;11.696;2022-12-31T12:40:28;0.57;;;0.47;;
17967;SDS011;9109;48.050;11.696;2022-12-31T12:43:49;0.50;;;0.50;;
17967;SDS011;9109;48.050;11.696;2022-12-31T12:47:18;1.25;;;0.57;;
17967;SDS011;9109;48.050;11.696;2022-12-31T12:50:47;0.40;;;0.40;;
17967;SDS011;9109;48.050;11.696;2022-12-31T12:53:54;0.65;;;0.43;;
17967;SDS011;9109;48.050;11.696;2022-12-31T12:57:09;1.63;;;0.50;;
17967;SDS011;9109;48.050;11.696;2022-12-31T13:00:33;3.03;;;0.50;;
17967;SDS011;9109;48.050;11.696;2022-12-31T13:07:39;1.65;;;0.50;;
17967;SDS011;9109;48.050;11.696;2022-12-31T13:11:00;0.30;;;0.30;;
17967;SDS011;9109;48.050;11.696;2022-12-31T13:15:10;0.65;;;0.55;;
17967;SDS011;9109;48.050;11.696;2022-12-31T13:21:36;0.30;;;0.30;;
17967;SDS011;9109;48.050;11.696;2022-12-31T13:24:59;0.63;;;0.47;;
17967;SDS011;9109;48.050;11.696;2022-12-31T13:28:14;0.45;;;0.40;;
17967;SDS011;9109;48.050;11.696;2022-12-31T13:31:29;0.52;;;0.50;;
17967;SDS011;9109;48.050;11.696;2022-12-31T13:34:38;0.63;;;0.45;;
17967;SDS011;9109;48.050;11.696;2022-12-31T13:38:09;0.77;;;0.50;;
17967;SDS011;9109;48.050;11.696;2022-12-31T13:41:20;3.60;;;0.60;;
17967;SDS011;9109;48.050;11.696;2022-12-31T13:44:38;1.65;;;0.45;;
17967;SDS011;9109;48.050;11.696;2022-12-31T13:48:14;0.80;;;0.60;;
17967;SDS011;9109;48.050;11.696;2022-12-31T13:52:00;0.57;;;0.50;;
17967;SDS011;9109;48.050;11.696;2022-12-31T13:55:32;0.60;;;0.40;;
17967;SDS011;9109;48.050;11.696;2022-12-31T13:58:52;1.00;;;0.60;;
17967;SDS011;9109;48.050;11.696;2022-12-31T14:02:12;0.82;;;0.75;;
17967;SDS011;9109;48.050;11.696;2022-12-31T14:05:32;1.08;;;0.60;;
17967;SDS011;9109;48.050;11.696;2022-12-31T14:08:59;1.17;;;0.60;;
17967;SDS011;9109;48.050;11.696;2022-12-31T14:12:33;2.08;;;0.75;;
17967;SDS011;9109;48.050;11.696;2022-12-31T14:16:08;1.20;;;0.80;;
17967;SDS011;9109;48.050;11.696;2022-12-31T14:19:52;3.08;;;0.55;;
17967;SDS011;9109;48.050;11.696;2022-12-31T14:23:04;2.28;;;0.65;;
17967;SDS011;9109;48.050;11.696;2022-12-31T14:26:21;1.98;;;1.10;;
17967;SDS011;9109;48.050;11.696;2022-12-31T14:29:42;6.82;;;1.00;;
17967;SDS011;9109;48.050;11.696;2022-12-31T14:33:00;1.35;;;0.90;;
17967;SDS011;9109;48.050;11.696;2022-12-31T14:36:18;2.58;;;0.90;;
17967;SDS011;9109;48.050;11.696;2022-12-31T14:39:47;4.38;;;1.17;;
17967;SDS011;9109;48.050;11.696;2022-12-31T14:43:30;2.30;;;1.00;;
17967;SDS011;9109;48.050;11.696;2022-12-31T14:46:54;1.20;;;0.85;;
17967;SDS011;9109;48.050;11.696;2022-12-31T14:50:15;3.65;;;1.33;;
17967;SDS011;9109;48.050;11.696;2022-12-31T14:53:30;3.28;;;1.63;;
17967;SDS011;9109;48.050;11.696;2022-12-31T14:56:55;3.35;;;1.08;;
17967;SDS011;9109;48.050;11.696;2022-12-31T15:00:24;1.85;;;1.10;;
17967;SDS011;9109;48.050;11.696;2022-12-31T15:03:46;2.20;;;1.00;;
17967;SDS011;9109;48.050;11.696;2022-12-31T15:06:54;1.25;;;0.95;;
17967;SDS011;9109;48.050;11.696;2022-12-31T15:10:11;3.15;;;1.33;;
17967;SDS011;9109;48.050;11.696;2022-12-31T15:13:35;1.35;;;1.05;;
17967;SDS011;9109;48.050;11.696;2022-12-31T15:17:01;5.45;;;1.00;;
17967;SDS011;9109;48.050;11.696;2022-12-31T15:23:50;2.88;;;1.33;;
17967;SDS011;9109;48.050;11.696;2022-12-31T15:26:55;4.18;;;1.40;;
17967;SDS011;9109;48.050;11.696;2022-12-31T15:30:05;2.78;;;1.50;;
17967;SDS011;9109;48.050;11.696;2022-12-31T15:33:13;3.40;;;1.50;;
17967;SDS011;9109;48.050;11.696;2022-12-31T15:36:23;4.28;;;1.42;;
17967;SDS011;9109;48.050;11.696;2022-12-31T15:39:37;2.83;;;1.50;;
17967;SDS011;9109;48.050;11.696;2022-12-31T15:42:41;4.30;;;2.20;;
17967;SDS011;9109;48.050;11.696;2022-12-31T15:45:48;3.55;;;1.90;;
17967;SDS011;9109;48.050;11.696;2022-12-31T15:48:56;5.38;;;2.80;;
17967;SDS011;9109;48.050;11.696;2022-12-31T15:52:07;7.68;;;2.40;;
17967;SDS011;9109;48.050;11.696;2022-12-31T15:55:28;5.63;;;1.92;;
17967;SDS011;9109;48.050;11.696;2022-12-31T15:58:40;3.72;;;2.22;;
17967;SDS011;9109;48.050;11.696;2022-12-31T16:01:46;4.60;;;2.63;;
17967;SDS011;9109;48.050;11.696;2022-12-31T16:05:06;15.95;;;3.60;;
17967;SDS011;9109;48.050;11.696;2022-12-31T16:08:45;11.30;;;4.47;;
17967;SDS011;9109;48.050;11.696;2022-12-31T16:12:17;10.80;;;4.88;;
17967;SDS011;9109;48.050;11.696;2022-12-31T16:15:46;6.82;;;3.17;;
17967;SDS011;9109;48.050;11.696;2022-12-31T16:19:26;5.60;;;2.50;;
17967;SDS011;9109;48.050;11.696;2022-12-31T16:22:37;11.13;;;2.85;;
17967;SDS011;9109;48.050;11.696;2022-12-31T16:26:07;7.13;;;2.72;;
17967;SDS011;9109;48.050;11.696;2022-12-31T16:29:25;5.78;;;2.28;;
17967;SDS011;9109;48.050;11.696;2022-12-31T16:32:40;4.13;;;2.22;;
17967;SDS011;9109;48.050;11.696;2022-12-31T16:39:22;6.45;;;2.97;;
17967;SDS011;9109;48.050;11.696;2022-12-31T16:46:18;7.65;;;3.60;;
17967;SDS011;9109;48.050;11.696;2022-12-31T16:49:41;7.93;;;4.75;;
17967;SDS011;9109;48.050;11.696;2022-12-31T16:53:14;9.32;;;4.72;;
17967;SDS011;9109;48.050;11.696;2022-12-31T16:56:37;14.55;;;6.70;;
17967;SDS011;9109;48.050;11.696;2022-12-31T16:59:53;13.55;;;4.78;;
17967;SDS011;9109;48.050;11.696;2022-12-31T17:03:21;15.70;;;7.88;;
17967;SDS011;9109;48.050;11.696;2022-12-31T17:06:30;14.75;;;7.05;;
17967;SDS011;9109;48.050;11.696;2022-12-31T17:10:01;8.38;;;4.93;;
17967;SDS011;9109;48.050;11.696;2022-12-31T17:13:35;8.50;;;4.28;;
17967;SDS011;9109;48.050;11.696;2022-12-31T17:20:27;8.63;;;4.97;;
17967;SDS011;9109;48.050;11.696;2022-12-31T17:23:50;8.30;;;4.10;;
17967;SDS011;9109;48.050;11.696;2022-12-31T17:35:30;14.52;;;7.63;;
17967;SDS011;9109;48.050;11.696;2022-12-31T17:39:02;30.10;;;13.13;;
17967;SDS011;9109;48.050;11.696;2022-12-31T17:42:50;18.60;;;9.02;;
17967;SDS011;9109;48.050;11.696;2022-12-31T17:46:32;15.43;;;7.20;;
17967;SDS011;9109;48.050;11.696;2022-12-31T17:50:16;16.98;;;7.03;;
17967;SDS011;9109;48.050;11.696;2022-12-31T17:53:35;23.17;;;9.40;;
17967;SDS011;9109;48.050;11.696;2022-12-31T17:56:39;24.80;;;12.00;;
17967;SDS011;9109;48.050;11.696;2022-12-31T17:59:46;24.50;;;12.23;;
17967;SDS011;9109;48.050;11.696;2022-12-31T18:03:02;42.83;;;17.17;;
17967;SDS011;9109;48.050;11.696;2022-12-31T18:06:07;27.17;;;13.47;;
17967;SDS011;9109;48.050;11.696;2022-12-31T18:09:17;29.50;;;15.13;;
17967;SDS011;9109;48.050;11.696;2022-12-31T18:12:25;28.83;;;13.68;;
17967;SDS011;9109;48.050;11.696;2022-12-31T18:15:32;23.90;;;11.90;;
17967;SDS011;9109;48.050;11.696;2022-12-31T18:18:37;22.33;;;10.55;;
17967;SDS011;9109;48.050;11.696;2022-12-31T18:21:44;22.90;;;11.33;;
17967;SDS011;9109;48.050;11.696;2022-12-31T18:24:54;24.90;;;12.68;;
17967;SDS011;9109;48.050;11.696;2022-12-31T18:27:56;65.70;;;30.08;;
17967;SDS011;9109;48.050;11.696;2022-12-31T18:31:02;72.80;;;35.22;;
17967;SDS011;9109;48.050;11.696;2022-12-31T18:34:08;52.00;;;23.67;;
17967;SDS011;9109;48.050;11.696;2022-12-31T18:37:15;37.73;;;17.03;;
17967;SDS011;9109;48.050;11.696;2022-12-31T18:40:19;31.53;;;15.23;;
17967;SDS011;9109;48.050;11.696;2022-12-31T18:43:21;26.73;;;14.45;;
17967;SDS011;9109;48.050;11.696;2022-12-31T18:46:24;33.87;;;14.70;;
17967;SDS011;9109;48.050;11.696;2022-12-31T18:49:26;31.97;;;13.87;;
17967;SDS011;9109;48.050;11.696;2022-12-31T18:52:28;32.87;;;15.67;;
17967;SDS011;9109;48.050;11.696;2022-12-31T18:55:33;34.75;;;17.23;;
17967;SDS011;9109;48.050;11.696;2022-12-31T18:58:39;41.90;;;15.77;;
17967;SDS011;9109;48.050;11.696;2022-12-31T19:01:41;30.40;;;15.47;;
17967;SDS011;9109;48.050;11.696;2022-12-31T19:04:43;42.70;;;17.50;;
17967;SDS011;9109;48.050;11.696;2022-12-31T19:07:46;40.13;;;19.33;;
17967;SDS011;9109;48.050;11.696;2022-12-31T19:10:57;39.73;;;19.90;;
17967;SDS011;9109;48.050;11.696;2022-12-31T19:13:59;39.40;;;19.80;;
17967;SDS011;9109;48.050;11.696;2022-12-31T19:17:02;33.13;;;16.43;;
17967;SDS011;9109;48.050;11.696;2022-12-31T19:20:04;31.60;;;15.43;;
17967;SDS011;9109;48.050;11.696;2022-12-31T19:23:10;32.10;;;15.17;;
17967;SDS011;9109;48.050;11.696;2022-12-31T19:26:17;35.60;;;14.97;;
17967;SDS011;9109;48.050;11.696;2022-12-31T19:29:21;34.73;;;15.70;;
17967;SDS011;9109;48.050;11.696;2022-12-31T19:32:26;28.42;;;12.93;;
17967;SDS011;9109;48.050;11.696;2022-12-31T19:35:31;25.90;;;11.53;;
17967;SDS011;9109;48.050;11.696;2022-12-31T19:38:33;18.03;;;7.80;;
17967;SDS011;9109;48.050;11.696;2022-12-31T19:41:36;22.07;;;8.93;;
17967;SDS011;9109;48.050;11.696;2022-12-31T19:44:43;14.77;;;7.33;;
17967;SDS011;9109;48.050;11.696;2022-12-31T19:47:49;13.83;;;6.57;;
17967;SDS011;9109;48.050;11.696;2022-12-31T19:50:54;10.53;;;4.90;;
17967;SDS011;9109;48.050;11.696;2022-12-31T19:53:56;12.33;;;6.50;;
17967;SDS011;9109;48.050;11.696;2022-12-31T19:57:09;12.70;;;6.37;;
17967;SDS011;9109;48.050;11.696;2022-12-31T20:00:16;11.57;;;5.40;;
17967;SDS011;9109;48.050;11.696;2022-12-31T20:03:27;9.33;;;4.93;;
17967;SDS011;9109;48.050;11.696;2022-12-31T20:06:35;10.87;;;5.10;;
17967;SDS011;9109;48.050;11.696;2022-12-31T20:09:46;7.70;;;4.10;;
17967;SDS011;9109;48.050;11.696;2022-12-31T20:12:52;13.00;;;4.50;;
17967;SDS011;9109;48.050;11.696;2022-12-31T20:16:07;8.77;;;4.30;;
17967;SDS011;9109;48.050;11.696;2022-12-31T20:19:28;8.63;;;4.27;;
17967;SDS011;9109;48.050;11.696;2022-12-31T20:22:34;7.07;;;4.03;;
17967;SDS011;9109;48.050;11.696;2022-12-31T20:25:36;7.93;;;4.40;;
17967;SDS011;9109;48.050;11.696;2022-12-31T20:28:41;9.67;;;5.10;;
17967;SDS011;9109;48.050;11.696;2022-12-31T20:31:48;9.43;;;4.77;;
17967;SDS011;9109;48.050;11.696;2022-12-31T20:34:52;9.67;;;3.97;;
17967;SDS011;9109;48.050;11.696;2022-12-31T20:37:55;5.90;;;3.43;;
17967;SDS011;9109;48.050;11.696;2022-12-31T20:41:01;9.50;;;3.83;;
17967;SDS011;9109;48.050;11.696;2022-12-31T20:44:05;7.83;;;4.33;;
17967;SDS011;9109;48.050;11.696;2022-12-31T20:47:08;8.57;;;4.17;;
17967;SDS011;9109;48.050;11.696;2022-12-31T20:50:10;6.97;;;3.88;;
17967;SDS011;9109;48.050;11.696;2022-12-31T20:53:20;12.90;;;4.50;;
17967;SDS011;9109;48.050;11.696;2022-12-31T20:56:23;6.07;;;3.43;;
17967;SDS011;9109;48.050;11.696;2022-12-31T20:59:29;12.33;;;4.23;;
17967;SDS011;9109;48.050;11.696;2022-12-31T21:02:37;8.63;;;4.60;;
17967;SDS011;9109;48.050;11.696;2022-12-31T21:05:45;7.63;;;4.43;;
17967;SDS011;9109;48.050;11.696;2022-12-31T21:08:53;12.10;;;5.77;;
17967;SDS011;9109;48.050;11.696;2022-12-31T21:12:01;10.40;;;4.60;;
17967;SDS011;9109;48.050;11.696;2022-12-31T21:15:22;8.03;;;4.27;;
17967;SDS011;9109;48.050;11.696;2022-12-31T21:18:28;10.23;;;4.83;;
17967;SDS011;9109;48.050;11.696;2022-12-31T21:21:30;9.57;;;5.00;;
17967;SDS011;9109;48.050;11.696;2022-12-31T21:24:32;8.77;;;4.97;;
17967;SDS011;9109;48.050;11.696;2022-12-31T21:27:39;10.20;;;5.33;;
17967;SDS011;9109;48.050;11.696;2022-12-31T21:30:55;8.30;;;4.93;;
17967;SDS011;9109;48.050;11.696;2022-12-31T21:33:57;12.17;;;5.20;;
17967;SDS011;9109;48.050;11.696;2022-12-31T21:36:59;11.73;;;5.30;;
17967;SDS011;9109;48.050;11.696;2022-12-31T21:40:04;11.83;;;5.17;;
17967;SDS011;9109;48.050;11.696;2022-12-31T21:43:07;9.50;;;4.40;;
17967;SDS011;9109;48.050;11.696;2022-12-31T21:46:12;6.93;;;3.77;;
17967;SDS011;9109;48.050;11.696;2022-12-31T21:49:21;8.70;;;3.63;;
17967;SDS011;9109;48.050;11.696;2022-12-31T21:52:23;5.57;;;3.30;;
17967;SDS011;9109;48.050;11.696;2022-12-31T21:55:29;6.17;;;3.00;;
17967;SDS011;9109;48.050;11.696;2022-12-31T21:58:51;7.00;;;3.40;;
17967;SDS011;9109;48.050;11.696;2022-12-31T22:02:14;6.00;;;3.23;;
17967;SDS011;9109;48.050;11.696;2022-12-31T22:05:33;6.80;;;3.13;;
17967;SDS011;9109;48.050;11.696;2022-12-31T22:08:35;13.90;;;5.93;;
17967;SDS011;9109;48.050;11.696;2022-12-31T22:11:38;15.80;;;6.23;;
17967;SDS011;9109;48.050;11.696;2022-12-31T22:14:40;12.03;;;5.93;;
17967;SDS011;9109;48.050;11.696;2022-12-31T22:17:46;8.93;;;4.40;;
17967;SDS011;9109;48.050;11.696;2022-12-31T22:20:48;12.23;;;3.93;;
17967;SDS011;9109;48.050;11.696;2022-12-31T22:23:55;9.47;;;5.13;;
17967;SDS011;9109;48.050;11.696;2022-12-31T22:27:05;9.97;;;5.90;;
17967;SDS011;9109;48.050;11.696;2022-12-31T22:30:10;11.73;;;5.27;;
17967;SDS011;9109;48.050;11.696;2022-12-31T22:33:22;8.73;;;4.47;;
17967;SDS011;9109;48.050;11.696;2022-12-31T22:36:24;7.47;;;3.90;;
17967;SDS011;9109;48.050;11.696;2022-12-31T22:39:31;6.30;;;3.60;;
17967;SDS011;9109;48.050;11.696;2022-12-31T22:42:33;6.57;;;3.50;;
17967;SDS011;9109;48.050;11.696;2022-12-31T22:45:35;6.37;;;3.10;;
17967;SDS011;9109;48.050;11.696;2022-12-31T22:48:45;6.93;;;3.30;;
17967;SDS011;9109;48.050;11.696;2022-12-31T22:51:53;5.13;;;3.30;;
17967;SDS011;9109;48.050;11.696;2022-12-31T22:54:55;8.97;;;3.77;;
17967;SDS011;9109;48.050;11.696;2022-12-31T22:57:57;13.50;;;5.13;;
17967;SDS011;9109;48.050;11.696;2022-12-31T23:01:02;19.80;;;10.07;;
17967;SDS011;9109;48.050;11.696;2022-12-31T23:04:06;9.77;;;6.07;;
17967;SDS011;9109;48.050;11.696;2022-12-31T23:07:08;37.47;;;15.33;;
17967;SDS011;9109;48.050;11.696;2022-12-31T23:10:11;17.87;;;7.53;;
17967;SDS011;9109;48.050;11.696;2022-12-31T23:13:38;10.77;;;6.33;;
17967;SDS011;9109;48.050;11.696;2022-12-31T23:16:58;15.80;;;6.73;;
17967;SDS011;9109;48.050;11.696;2022-12-31T23:20:23;11.70;;;4.80;;
17967;SDS011;9109;48.050;11.696;2022-12-31T23:23:43;17.60;;;6.83;;
17967;SDS011;9109;48.050;11.696;2022-12-31T23:26:45;14.20;;;6.20;;
17967;SDS011;9109;48.050;11.696;2022-12-31T23:29:47;14.37;;;8.13;;
17967;SDS011;9109;48.050;11.696;2022-12-31T23:32:49;50.40;;;21.07;;
17967;SDS011;9109;48.050;11.696;2022-12-31T23:36:01;63.03;;;24.73;;
17967;SDS011;9109;48.050;11.696;2022-12-31T23:39:07;77.63;;;31.40;;
17967;SDS011;9109;48.050;11.696;2022-12-31T23:42:11;63.47;;;28.73;;
17967;SDS011;9109;48.050;11.696;2022-12-31T23:45:21;50.73;;;23.43;;
17967;SDS011;9109;48.050;11.696;2022-12-31T23:48:23;41.20;;;16.83;;
17967;SDS011;9109;48.050;11.696;2022-12-31T23:51:27;40.47;;;15.70;;
17967;SDS011;9109;48.050;11.696;2022-12-31T23:54:29;62.97;;;24.00;;
17967;SDS011;9109;48.050;11.696;2022-12-31T23:57:31;64.87;;;29.90;;
